createdAt,value
2019-03-06T00:01:56.895Z,21.53
2019-03-06T00:04:26.571Z,20.93
2019-03-06T00:06:56.225Z,20.10
2019-03-06T00:09:25.824Z,22.37
2019-03-06T00:11:55.372Z,15.87
2019-03-06T00:14:24.976Z,17.17
2019-03-06T00:16:54.877Z,17.03
2019-03-06T00:19:24.407Z,20.07
2019-03-06T00:21:54.027Z,20.10
2019-03-06T00:24:23.783Z,18.90
2019-03-06T00:26:53.332Z,19.73
2019-03-06T00:29:23.114Z,18.40
2019-03-06T00:31:52.725Z,15.10
2019-03-06T00:34:22.131Z,21.27
2019-03-06T00:36:51.803Z,14.20
2019-03-06T00:39:21.456Z,18.03
2019-03-06T00:41:51.130Z,15.30
2019-03-06T00:44:20.888Z,15.43
2019-03-06T00:46:50.457Z,19.33
2019-03-06T00:49:20.156Z,17.97
2019-03-06T00:51:49.955Z,16.20
2019-03-06T00:54:19.595Z,16.00
2019-03-06T00:56:49.174Z,20.13
2019-03-06T00:59:18.832Z,13.83
2019-03-06T01:01:48.428Z,16.50
2019-03-06T01:04:18.260Z,21.23
2019-03-06T01:06:47.839Z,13.97
2019-03-06T01:09:17.382Z,16.57
2019-03-06T01:11:46.909Z,15.73
2019-03-06T01:14:22.971Z,11.70
2019-03-06T01:16:52.585Z,11.53
2019-03-06T01:19:22.271Z,15.70
2019-03-06T01:21:51.906Z,13.23
2019-03-06T01:24:23.230Z,18.07
2019-03-06T01:26:53.027Z,17.23
2019-03-06T01:29:22.496Z,16.90
2019-03-06T01:31:52.343Z,13.97
2019-03-06T01:34:26.087Z,16.67
2019-03-06T01:37:09.004Z,15.60
2019-03-06T01:39:43.258Z,18.07
2019-03-06T01:42:30.703Z,14.73
2019-03-06T01:45:00.357Z,13.67
2019-03-06T01:47:30.470Z,15.90
2019-03-06T01:49:59.896Z,9.70
2019-03-06T01:52:29.538Z,14.03
2019-03-06T01:54:59.338Z,16.20
2019-03-06T01:57:28.866Z,15.60
2019-03-06T01:59:58.511Z,17.20
2019-03-06T02:02:28.028Z,13.97
2019-03-06T02:04:59.350Z,15.30
2019-03-06T02:07:29.041Z,16.37
2019-03-06T02:10:00.317Z,18.13
2019-03-06T02:12:29.956Z,16.77
2019-03-06T02:14:59.508Z,15.30
2019-03-06T02:17:29.204Z,14.67
2019-03-06T02:19:58.784Z,15.03
2019-03-06T02:22:28.326Z,15.03
2019-03-06T02:24:59.534Z,13.77
2019-03-06T02:27:29.130Z,13.00
2019-03-06T02:29:59.153Z,16.50
2019-03-06T02:32:28.776Z,18.37
2019-03-06T02:34:58.349Z,18.33
2019-03-06T02:37:27.842Z,12.80
2019-03-06T02:39:57.342Z,14.87
2019-03-06T02:42:27.156Z,12.10
2019-03-06T02:44:57.008Z,14.43
2019-03-06T02:47:26.637Z,12.60
2019-03-06T02:49:56.233Z,15.67
2019-03-06T02:52:25.747Z,17.93
2019-03-06T02:54:55.649Z,15.10
2019-03-06T02:57:25.160Z,14.67
2019-03-06T02:59:59.001Z,11.17
2019-03-06T03:02:30.313Z,13.50
2019-03-06T03:05:16.643Z,14.17
2019-03-06T03:07:46.148Z,12.80
2019-03-06T03:10:16.040Z,14.37
2019-03-06T03:12:45.680Z,13.13
2019-03-06T03:15:17.202Z,12.97
2019-03-06T03:17:46.703Z,12.90
2019-03-06T03:20:16.544Z,12.33
2019-03-06T03:22:46.085Z,11.97
2019-03-06T03:25:15.679Z,10.57
2019-03-06T03:27:45.705Z,13.53
2019-03-06T03:30:16.171Z,12.20
2019-03-06T03:32:47.325Z,14.10
2019-03-06T03:35:17.826Z,10.10
2019-03-06T03:37:47.578Z,12.37
2019-03-06T03:40:17.219Z,16.10
2019-03-06T03:42:46.989Z,17.83
2019-03-06T03:45:17.152Z,16.90
2019-03-06T03:47:46.617Z,12.83
2019-03-06T03:50:16.442Z,14.57
2019-03-06T03:52:46.093Z,15.70
2019-03-06T03:55:17.843Z,8.03
2019-03-06T03:57:47.518Z,14.47
2019-03-06T04:00:19.343Z,12.30
2019-03-06T04:02:48.840Z,14.27
2019-03-06T04:05:18.444Z,12.83
2019-03-06T04:07:48.126Z,12.97
2019-03-06T04:10:17.647Z,12.57
2019-03-06T04:12:47.156Z,15.23
2019-03-06T04:15:17.748Z,11.00
2019-03-06T04:17:47.543Z,12.97
2019-03-06T04:20:17.585Z,10.90
2019-03-06T04:22:47.102Z,9.20
2019-03-06T04:25:16.651Z,7.83
2019-03-06T04:27:46.176Z,8.87
2019-03-06T04:30:19.682Z,10.50
2019-03-06T04:32:49.190Z,13.60
2019-03-06T04:35:19.962Z,8.80
2019-03-06T04:37:49.605Z,10.80
2019-03-06T04:40:19.399Z,10.00
2019-03-06T04:42:49.010Z,10.10
2019-03-06T04:45:18.925Z,8.93
2019-03-06T04:47:48.469Z,13.13
2019-03-06T04:50:18.063Z,10.77
2019-03-06T04:52:47.798Z,10.00
2019-03-06T04:55:17.597Z,6.47
2019-03-06T04:57:47.392Z,11.40
2019-03-06T05:00:19.373Z,11.50
2019-03-06T05:02:48.972Z,10.57
2019-03-06T05:05:18.726Z,11.73
2019-03-06T05:07:48.290Z,9.77
2019-03-06T05:10:18.150Z,11.27
2019-03-06T05:12:47.635Z,9.13
2019-03-06T05:15:18.341Z,8.80
2019-03-06T05:17:52.174Z,10.43
2019-03-06T05:20:21.660Z,10.93
2019-03-06T05:22:51.226Z,9.03
2019-03-06T05:25:20.792Z,8.40
2019-03-06T05:27:50.264Z,15.27
2019-03-06T05:30:21.456Z,12.00
2019-03-06T05:32:56.884Z,9.90
2019-03-06T05:35:41.212Z,8.97
2019-03-06T05:38:16.795Z,8.77
2019-03-06T05:40:46.366Z,8.53
2019-03-06T05:43:16.065Z,8.50
2019-03-06T05:45:45.816Z,8.10
2019-03-06T05:48:15.629Z,9.43
2019-03-06T05:50:45.206Z,11.50
2019-03-06T05:53:14.954Z,6.20
2019-03-06T05:55:44.606Z,7.13
2019-03-06T05:58:14.346Z,7.63
2019-03-06T06:00:43.888Z,7.67
2019-03-06T06:03:13.557Z,6.03
2019-03-06T06:05:43.210Z,7.87
2019-03-06T06:08:12.787Z,12.10
2019-03-06T06:10:42.288Z,8.33
2019-03-06T06:13:11.911Z,8.13
2019-03-06T06:15:41.506Z,7.03
2019-03-06T06:18:11.064Z,7.93
2019-03-06T06:20:40.587Z,5.80
2019-03-06T06:23:14.805Z,8.80
2019-03-06T06:25:44.268Z,11.87
2019-03-06T06:28:13.805Z,11.23
2019-03-06T06:30:43.771Z,8.30
2019-03-06T06:33:13.220Z,6.67
2019-03-06T06:35:42.868Z,9.30
2019-03-06T06:38:12.395Z,9.23
2019-03-06T06:40:41.957Z,6.87
2019-03-06T06:43:11.439Z,9.93
2019-03-06T06:45:41.041Z,9.07
2019-03-06T06:48:15.525Z,8.10
2019-03-06T06:51:01.232Z,9.30
2019-03-06T06:53:34.254Z,7.93
2019-03-06T06:56:18.007Z,7.03
2019-03-06T06:58:53.072Z,6.30
2019-03-06T07:01:32.888Z,8.10
2019-03-06T07:04:21.958Z,10.60
2019-03-06T07:06:58.960Z,7.70
2019-03-06T07:09:45.365Z,8.63
2019-03-06T07:12:22.901Z,7.17
2019-03-06T07:15:09.929Z,7.17
2019-03-06T07:17:41.052Z,5.70
2019-03-06T07:20:21.595Z,9.03
2019-03-06T07:22:55.187Z,7.97
2019-03-06T07:25:26.451Z,8.40
2019-03-06T07:28:00.573Z,8.87
2019-03-06T07:30:34.599Z,9.70
2019-03-06T07:33:08.347Z,7.70
2019-03-06T07:36:00.429Z,6.03
2019-03-06T07:38:30.439Z,7.87
2019-03-06T07:41:04.393Z,9.17
2019-03-06T07:43:44.349Z,10.17
2019-03-06T07:46:33.985Z,7.17
2019-03-06T07:49:21.063Z,4.63
2019-03-06T07:52:01.265Z,9.80
2019-03-06T07:54:43.977Z,6.00
2019-03-06T07:57:15.253Z,6.70
2019-03-06T07:59:45.083Z,6.37
2019-03-06T08:02:30.942Z,9.83
2019-03-06T08:05:01.614Z,5.20
2019-03-06T08:07:31.173Z,9.40
2019-03-06T08:10:00.732Z,9.13
2019-03-06T08:12:31.894Z,8.93
2019-03-06T08:15:06.195Z,7.63
2019-03-06T08:17:53.313Z,6.43
2019-03-06T08:20:40.533Z,6.90
2019-03-06T08:23:17.503Z,7.87
2019-03-06T08:25:47.864Z,9.13
2019-03-06T08:28:17.644Z,7.83
2019-03-06T08:31:05.253Z,8.83
2019-03-06T08:33:34.858Z,7.50
2019-03-06T08:36:04.525Z,5.43
2019-03-06T08:38:34.247Z,6.93
2019-03-06T08:41:04.879Z,9.30
2019-03-06T08:43:34.995Z,7.73
2019-03-06T08:46:12.125Z,7.00
2019-03-06T08:48:49.285Z,7.93
2019-03-06T08:51:36.465Z,6.70
2019-03-06T08:54:10.503Z,5.10
2019-03-06T08:56:47.661Z,6.60
2019-03-06T08:59:18.824Z,7.17
2019-03-06T09:02:15.089Z,8.67
2019-03-06T09:04:43.498Z,7.70
2019-03-06T09:07:18.425Z,6.10
2019-03-06T09:09:49.569Z,9.03
2019-03-06T09:12:23.601Z,9.07
2019-03-06T09:15:00.404Z,7.07
2019-03-06T09:17:40.388Z,8.50
2019-03-06T09:20:17.628Z,8.67
2019-03-06T09:22:48.793Z,7.47
2019-03-06T09:25:20.021Z,9.63
2019-03-06T09:27:59.920Z,6.93
2019-03-06T09:30:33.985Z,7.47
2019-03-06T09:33:05.317Z,9.57
2019-03-06T09:35:36.483Z,8.90
2019-03-06T09:38:19.877Z,8.60
2019-03-06T09:40:53.837Z,7.33
2019-03-06T09:43:27.739Z,7.40
2019-03-06T09:46:04.879Z,9.53
2019-03-06T09:48:42.197Z,5.90
2019-03-06T09:51:22.605Z,7.23
2019-03-06T09:53:56.873Z,6.87
2019-03-06T09:56:33.789Z,8.27
2019-03-06T09:59:23.141Z,6.17
2019-03-06T10:02:06.674Z,7.57
2019-03-06T10:04:36.250Z,10.73
2019-03-06T10:07:22.452Z,6.33
2019-03-06T10:09:59.348Z,6.80
2019-03-06T10:12:29.711Z,6.83
2019-03-06T10:15:13.805Z,8.03
2019-03-06T10:17:51.319Z,5.60
2019-03-06T10:20:25.453Z,7.43
2019-03-06T10:22:54.803Z,10.67
2019-03-06T10:25:30.044Z,7.50
2019-03-06T10:28:05.731Z,6.67
2019-03-06T10:30:28.101Z,12.23
2019-03-06T10:32:58.011Z,10.27
2019-03-06T10:35:27.536Z,8.37
2019-03-06T10:37:57.506Z,6.93
2019-03-06T10:41:20.825Z,9.50
2019-03-06T10:43:50.590Z,13.30
2019-03-06T10:46:20.204Z,9.13
2019-03-06T10:48:49.964Z,9.67
2019-03-06T10:51:19.944Z,9.37
2019-03-06T10:53:49.463Z,7.10
2019-03-06T10:56:19.111Z,6.90
2019-03-06T10:58:48.628Z,9.40
2019-03-06T11:01:18.410Z,8.67
2019-03-06T11:03:52.412Z,10.37
2019-03-06T11:06:22.197Z,7.53
2019-03-06T11:08:51.831Z,6.70
2019-03-06T11:11:21.655Z,7.87
2019-03-06T11:13:51.489Z,13.00
2019-03-06T11:16:21.407Z,6.53
2019-03-06T11:18:51.484Z,7.97
2019-03-06T11:21:21.254Z,5.90
2019-03-06T11:23:50.802Z,9.10
2019-03-06T11:26:20.571Z,12.80
2019-03-06T11:28:50.216Z,8.50
2019-03-06T11:31:20.064Z,7.13
2019-03-06T11:33:49.555Z,6.90
2019-03-06T11:36:19.276Z,8.70
2019-03-06T11:38:49.010Z,11.23
2019-03-06T11:41:18.910Z,9.73
2019-03-06T11:43:48.570Z,6.90
2019-03-06T11:46:19.292Z,8.93
2019-03-06T11:48:49.642Z,6.27
2019-03-06T11:51:19.350Z,9.93
2019-03-06T11:53:49.312Z,10.50
2019-03-06T11:56:19.218Z,8.43
2019-03-06T11:58:49.046Z,8.10
2019-03-06T12:01:20.358Z,13.67
2019-03-06T12:03:49.999Z,7.40
2019-03-06T12:06:19.762Z,7.40
2019-03-06T12:08:49.567Z,10.47
2019-03-06T12:11:19.156Z,7.40
2019-03-06T12:13:50.123Z,8.60
2019-03-06T12:16:20.047Z,8.17
2019-03-06T12:18:49.750Z,5.97
2019-03-06T12:21:19.558Z,7.77
2019-03-06T12:23:49.261Z,8.70
2019-03-06T12:26:18.977Z,8.17
2019-03-06T12:28:48.916Z,8.23
2019-03-06T12:31:19.135Z,5.80
2019-03-06T12:33:49.812Z,8.90
2019-03-06T12:36:19.545Z,6.07
2019-03-06T12:38:49.387Z,5.50
2019-03-06T12:41:19.102Z,8.03
2019-03-06T12:43:48.764Z,7.73
2019-03-06T12:46:23.873Z,8.73
2019-03-06T12:48:58.361Z,8.57
2019-03-06T12:51:28.484Z,7.23
2019-03-06T12:53:57.996Z,11.87
2019-03-06T12:56:27.844Z,7.87
2019-03-06T12:58:57.392Z,6.57
2019-03-06T13:01:27.262Z,13.37
2019-03-06T13:03:57.109Z,7.47
2019-03-06T13:06:26.782Z,9.27
2019-03-06T13:08:57.352Z,7.43
2019-03-06T13:11:27.015Z,6.50
2019-03-06T13:13:56.597Z,9.67
2019-03-06T13:16:26.420Z,7.63
2019-03-06T13:18:56.089Z,5.73
2019-03-06T13:21:25.792Z,8.07
2019-03-06T13:23:55.308Z,12.97
2019-03-06T13:26:24.735Z,6.90
2019-03-06T13:28:57.367Z,11.80
2019-03-06T13:31:25.758Z,10.63
2019-03-06T13:34:13.440Z,8.73
2019-03-06T13:36:43.038Z,8.00
2019-03-06T13:39:12.655Z,8.63
2019-03-06T13:41:42.196Z,7.07
2019-03-06T13:44:11.989Z,9.13
2019-03-06T13:46:41.840Z,9.03
2019-03-06T13:49:11.522Z,8.00
2019-03-06T13:51:41.741Z,11.37
2019-03-06T13:54:11.314Z,8.40
2019-03-06T13:56:40.920Z,6.27
2019-03-06T13:59:10.626Z,9.53
2019-03-06T14:01:40.262Z,8.73
2019-03-06T14:04:09.974Z,12.07
2019-03-06T14:06:39.570Z,10.40
2019-03-06T14:09:09.496Z,7.27
2019-03-06T14:11:39.169Z,8.57
2019-03-06T14:14:08.680Z,7.47
2019-03-06T14:16:38.590Z,8.57
2019-03-06T14:19:08.178Z,6.57
2019-03-06T14:21:37.754Z,8.33
2019-03-06T14:24:07.242Z,8.60
2019-03-06T14:26:37.222Z,11.77
2019-03-06T14:29:06.746Z,8.27
2019-03-06T14:31:36.502Z,8.87
2019-03-06T14:34:06.121Z,10.63
2019-03-06T14:36:35.757Z,9.67
2019-03-06T14:39:08.586Z,11.30
2019-03-06T14:41:38.147Z,9.00
2019-03-06T14:44:07.782Z,10.53
2019-03-06T14:46:37.246Z,9.57
2019-03-06T14:49:06.913Z,7.77
2019-03-06T14:51:36.517Z,6.83
2019-03-06T14:54:06.982Z,8.07
2019-03-06T14:56:36.591Z,10.30
2019-03-06T14:59:06.220Z,8.57
2019-03-06T15:01:35.795Z,7.10
2019-03-06T15:04:05.742Z,8.07
2019-03-06T15:06:35.711Z,9.07
2019-03-06T15:09:08.666Z,8.17
2019-03-06T15:11:38.268Z,8.57
2019-03-06T15:14:07.761Z,6.07
2019-03-06T15:16:37.252Z,7.40
2019-03-06T15:19:06.956Z,8.63
2019-03-06T15:21:36.742Z,12.43
2019-03-06T15:24:06.496Z,7.77
2019-03-06T15:26:36.070Z,8.70
2019-03-06T15:29:05.830Z,9.83
2019-03-06T15:31:35.473Z,7.47
2019-03-06T15:34:05.478Z,9.20
2019-03-06T15:36:35.092Z,8.50
2019-03-06T15:39:07.672Z,9.37
2019-03-06T15:41:37.377Z,7.17
2019-03-06T15:44:07.110Z,7.30
2019-03-06T15:46:36.774Z,8.50
2019-03-06T15:49:06.562Z,10.67
2019-03-06T15:51:36.370Z,6.90
2019-03-06T15:54:05.965Z,8.10
2019-03-06T15:56:35.644Z,8.53
2019-03-06T15:59:14.409Z,8.97
2019-03-06T16:01:36.454Z,7.70
2019-03-06T16:04:06.535Z,9.17
2019-03-06T16:06:36.342Z,9.97
2019-03-06T16:09:08.107Z,10.20
2019-03-06T16:11:37.749Z,7.00
2019-03-06T16:14:09.018Z,9.83
2019-03-06T16:16:38.700Z,13.47
2019-03-06T16:19:08.371Z,11.93
2019-03-06T16:21:37.945Z,10.40
2019-03-06T16:24:07.391Z,10.10
2019-03-06T16:26:37.179Z,9.17
2019-03-06T16:29:06.907Z,10.23
2019-03-06T16:31:36.814Z,10.37
2019-03-06T16:34:06.750Z,10.90
2019-03-06T16:36:36.402Z,9.47
2019-03-06T16:39:07.546Z,9.50
2019-03-06T16:41:37.586Z,12.47
2019-03-06T16:44:08.382Z,13.53
2019-03-06T16:46:38.045Z,10.17
2019-03-06T16:49:08.128Z,11.03
2019-03-06T16:51:38.184Z,13.33
2019-03-06T16:54:07.996Z,12.47
2019-03-06T16:56:37.641Z,11.77
2019-03-06T16:59:07.444Z,11.67
2019-03-06T17:01:38.377Z,11.03
2019-03-06T17:04:08.033Z,10.00
2019-03-06T17:06:37.789Z,11.03
2019-03-06T17:09:08.050Z,9.40
2019-03-06T17:11:37.724Z,12.40
2019-03-06T17:14:07.452Z,10.63
2019-03-06T17:16:37.337Z,11.40
2019-03-06T17:19:07.212Z,13.93
2019-03-06T17:21:36.882Z,12.60
2019-03-06T17:24:06.618Z,12.43
2019-03-06T17:26:36.986Z,12.90
2019-03-06T17:29:11.465Z,14.00
2019-03-06T17:31:41.847Z,11.37
2019-03-06T17:34:11.440Z,10.53
2019-03-06T17:36:41.285Z,13.83
2019-03-06T17:39:11.552Z,14.43
2019-03-06T17:41:41.020Z,18.73
2019-03-06T17:44:11.193Z,15.93
2019-03-06T17:46:40.881Z,17.37
2019-03-06T17:49:10.617Z,15.77
2019-03-06T17:51:40.194Z,13.83
2019-03-06T17:54:09.859Z,13.97
2019-03-06T17:56:39.504Z,11.50
2019-03-06T17:59:09.002Z,15.37
2019-03-06T18:01:38.772Z,17.20
2019-03-06T18:04:09.898Z,14.27
2019-03-06T18:06:39.408Z,13.70
2019-03-06T18:09:09.471Z,10.60
2019-03-06T18:11:39.158Z,11.67
2019-03-06T18:14:08.650Z,15.00
2019-03-06T18:16:38.586Z,13.73
2019-03-06T18:19:08.146Z,16.17
2019-03-06T18:21:37.997Z,13.17
2019-03-06T18:24:07.752Z,12.60
2019-03-06T18:26:37.400Z,13.47
2019-03-06T18:29:06.961Z,14.23
2019-03-06T18:31:36.784Z,12.50
2019-03-06T18:34:06.691Z,15.77
2019-03-06T18:36:36.331Z,14.80
2019-03-06T18:39:08.834Z,15.97
2019-03-06T18:41:38.425Z,15.83
2019-03-06T18:44:08.432Z,14.80
2019-03-06T18:46:38.111Z,13.63
2019-03-06T18:49:21.169Z,13.77
2019-03-06T18:51:50.710Z,13.60
2019-03-06T18:54:20.355Z,14.53
2019-03-06T18:56:50.230Z,11.20
2019-03-06T18:59:19.890Z,14.37
2019-03-06T19:01:49.719Z,14.03
2019-03-06T19:04:19.304Z,16.47
2019-03-06T19:06:48.881Z,13.50
2019-03-06T19:09:19.864Z,17.77
2019-03-06T19:12:08.048Z,13.13
2019-03-06T19:14:37.684Z,16.63
2019-03-06T19:17:07.309Z,14.37
2019-03-06T19:19:36.814Z,14.23
2019-03-06T19:22:06.624Z,15.60
2019-03-06T19:24:36.185Z,16.67
2019-03-06T19:27:05.750Z,19.20
2019-03-06T19:29:35.361Z,16.33
2019-03-06T19:32:05.233Z,16.40
2019-03-06T19:34:34.591Z,20.90
2019-03-06T19:37:04.224Z,16.00
2019-03-06T19:39:33.645Z,18.50
2019-03-06T19:42:03.093Z,14.73
2019-03-06T19:44:50.695Z,18.17
2019-03-06T19:47:20.891Z,13.90
2019-03-06T19:49:50.475Z,14.17
2019-03-06T19:52:20.405Z,16.13
2019-03-06T19:54:50.267Z,19.03
2019-03-06T19:57:19.995Z,16.43
2019-03-06T19:59:49.586Z,12.57
2019-03-06T20:02:19.707Z,14.47
2019-03-06T20:04:49.279Z,17.47
2019-03-06T20:07:18.875Z,19.20
2019-03-06T20:09:48.969Z,15.27
2019-03-06T20:12:18.838Z,18.50
2019-03-06T20:14:48.532Z,16.57
2019-03-06T20:17:20.234Z,19.93
2019-03-06T20:19:49.861Z,21.10
2019-03-06T20:24:54.639Z,17.37
2019-03-06T20:27:24.411Z,15.07
2019-03-06T20:29:54.163Z,18.00
2019-03-06T20:32:23.889Z,15.60
2019-03-06T20:35:06.339Z,16.03
2019-03-06T20:37:48.260Z,14.23
2019-03-06T20:40:23.831Z,18.83
2019-03-06T20:42:53.474Z,17.70
2019-03-06T20:45:23.181Z,17.07
2019-03-06T20:47:52.749Z,14.50
2019-03-06T20:50:22.291Z,19.93
2019-03-06T20:52:51.918Z,14.20
2019-03-06T20:55:33.688Z,17.43
2019-03-06T20:58:03.545Z,18.63
2019-03-06T21:00:33.049Z,17.83
2019-03-06T21:03:03.648Z,18.93
2019-03-06T21:05:33.195Z,15.60
2019-03-06T21:08:02.824Z,16.67
2019-03-06T21:10:32.478Z,21.17
2019-03-06T21:13:02.184Z,23.33
2019-03-06T21:15:31.627Z,16.77
2019-03-06T21:18:01.301Z,15.77
2019-03-06T21:20:30.770Z,15.90
2019-03-06T21:23:01.955Z,20.13
2019-03-06T21:25:33.513Z,16.10
2019-03-06T21:28:03.091Z,15.90
2019-03-06T21:30:34.306Z,14.30
2019-03-06T21:33:03.901Z,14.03
2019-03-06T21:35:35.367Z,17.20
2019-03-06T21:38:05.204Z,18.73
2019-03-06T21:40:40.579Z,18.57
2019-03-06T21:43:10.275Z,15.23
2019-03-06T21:45:39.879Z,17.20
2019-03-06T21:48:09.491Z,16.13
2019-03-06T21:50:39.073Z,16.60
2019-03-06T21:53:08.588Z,16.47
2019-03-06T21:55:38.331Z,15.30
2019-03-06T21:58:07.977Z,15.40
2019-03-06T22:00:37.727Z,15.80
2019-03-06T22:03:07.306Z,15.57
2019-03-06T22:05:36.864Z,15.40
2019-03-06T22:08:06.733Z,13.97
2019-03-06T22:10:36.195Z,13.93
2019-03-06T22:13:05.824Z,15.37
2019-03-06T22:15:35.374Z,14.33
2019-03-06T22:18:04.924Z,14.73
2019-03-06T22:20:34.626Z,15.20
2019-03-06T22:23:04.225Z,16.53
2019-03-06T22:25:33.969Z,13.70
2019-03-06T22:28:03.651Z,14.80
2019-03-06T22:30:33.348Z,15.23
2019-03-06T22:33:03.057Z,14.97
2019-03-06T22:35:32.609Z,12.97
2019-03-06T22:38:02.285Z,12.77
2019-03-06T22:40:31.905Z,13.43
2019-03-06T22:43:01.528Z,13.90
2019-03-06T22:45:31.135Z,13.80
2019-03-06T22:48:00.739Z,13.00
2019-03-06T22:50:30.413Z,12.27
2019-03-06T22:52:59.965Z,12.03
2019-03-06T22:55:29.504Z,13.13
2019-03-06T22:57:59.130Z,11.10
2019-03-06T23:00:32.524Z,17.20
2019-03-06T23:03:02.240Z,12.87
2019-03-06T23:05:36.406Z,10.50
2019-03-06T23:08:06.083Z,10.63
2019-03-06T23:10:35.742Z,10.97
2019-03-06T23:13:05.349Z,11.47
2019-03-06T23:15:34.888Z,13.23
2019-03-06T23:18:05.179Z,10.37
2019-03-06T23:20:34.764Z,11.70
2019-03-06T23:23:04.571Z,12.73
2019-03-06T23:25:34.220Z,10.57
2019-03-06T23:28:03.778Z,10.90
2019-03-06T23:30:33.723Z,11.33
2019-03-06T23:33:03.425Z,10.03
2019-03-06T23:35:32.942Z,9.03
2019-03-06T23:38:02.521Z,9.07
2019-03-06T23:40:32.036Z,10.87
2019-03-06T23:43:01.690Z,10.70
2019-03-06T23:45:31.284Z,11.50
2019-03-06T23:48:01.112Z,9.33
2019-03-06T23:50:30.749Z,10.23
2019-03-06T23:53:12.690Z,8.23
2019-03-06T23:55:42.390Z,9.57
2019-03-06T23:58:12.038Z,10.80
